Free Trial

Danaher (DHR) Institutional Ownership

$255.93
-2.78 (-1.07%)
(As of 04:10 PM ET)

Institutional Ownership Changes (13F Filings) for Danaher (NYSE:DHR)

Current
Institutional Ownership
Percentage
79.05%
Number of
Institutional Buyers
(last 12 months)
1432
Total
Institutional Inflows
(last 12 months)
$302.23B
Number of
Institutional Sellers
(last 12 months)
1036
Total
Institutional Outflows
(last 12 months)
$10.21B
Get DHR Insider Trade Alerts

Want to know when executives and insiders are buying or selling Danaher stock? Sign up for InsiderTrades.com's daily newsletter to get the latest insider transactions delivered to your inbox daily.

Skip Chart & View Institutional Buying and Selling Data

DHR Institutional Buying and Selling by Quarter

Danaher Major Shareholders & Ownership History

Reporting DateMajor Shareholder NameShares HeldMarket Value% of PortfolioQuarterly Change in SharesOwnership in CompanyDetails
5/28/2024 Teachers Retirement System of The State of Kentucky94,481$23.59M0.2%-2.1%0.013%
5/24/2024 Cetera Advisor Networks LLC72,454$18.09M0.1%+6.3%0.010%
5/24/2024 Cetera Advisors LLC27,346$6.83M0.1%+44.3%0.004%
5/24/2024 Cetera Investment Advisers122,223$30.52M0.1%+338.0%0.017%
5/24/2024 PGGM Investments1,838$459K0.0%N/A0.000%
5/22/2024 BigSur Wealth Management LLC11,540$2.89M0.9%+87.9%0.002%
5/21/2024 Atria Investments Inc41,301$10.31M0.1%+4.5%0.006%
5/21/2024 Swedbank AB2,709,212$676.55M1.0%N/A0.366%
5/21/2024Sanibel Captiva Trust Company Inc.17,964$4.49M0.2%-0.9%0.002%
5/21/2024 LRI Investments LLC681$170K0.0%N/A0.000%
5/21/2024 Arrow Financial Corp12,792$3.19M0.3%+1.7%0.002%
5/20/2024 Virtu Financial LLC18,924$4.73M0.4%N/A0.003%
5/20/2024Strategic Wealth Partners Ltd.1,284$321K0.0%+17.5%0.000%
5/17/2024 Wahed Invest LLC12,873$3.22M0.7%+15.2%0.002%
5/17/2024 Citizens Financial Group Inc. RI7,949$1.99M0.1%+3.4%0.001%
5/17/2024 Heartland Bank & Trust Co2,174$543K0.3%+61.4%0.000%
5/17/2024 New Covenant Trust Company N.A.611$153K0.2%N/A0.000%
5/17/2024 Plato Investment Management Ltd12,188$3.04M0.3%+1,549.3%0.002%
5/17/2024 Western Pacific Wealth Management LP220$55K0.0%N/A0.000%
5/17/2024 XML Financial LLC4,978$1.24M0.1%-7.5%0.001%
5/17/2024 iA Global Asset Management Inc.523,253$130.67M1.5%+0.3%0.071%
5/17/2024 WealthPlan Investment Management LLC19,563$4.89M0.7%+5.1%0.003%
5/17/2024 LBP AM SA11,477$2.87M0.1%-91.6%0.002%
5/17/2024 Tandem Capital Management Corp ADV15,302$3.82M2.2%+0.4%0.002%
5/17/2024 First Western Trust Bank32,338$8.08M0.4%-4.3%0.004%
5/17/2024 Comerica Bank172,768$43.14M0.2%-3.0%0.023%
5/17/2024 Tidal Investments LLC52,421$13.09M0.2%+14.4%0.007%
5/16/2024 California State Teachers Retirement System1,135,604$283.58M0.4%+1.1%0.153%
5/16/2024 B. Riley Wealth Advisors Inc.10,508$2.61M0.1%-8.1%0.001%
5/16/2024 Ancora Advisors LLC6,898$1.72M0.0%+4.6%0.001%
5/16/2024 Investidor Profissional Gestao de Recursos Ltda.21,995$5.49M1.9%+32.6%0.003%
5/16/2024 Vancity Investment Management Ltd124,481$31.09M3.7%+25.7%0.017%
5/16/2024 WMS Partners LLC15,387$3.84M0.3%-0.3%0.002%
5/16/2024 Whalerock Point Partners LLC4,798$1.20M0.3%+42.4%0.001%
5/16/2024 Industrial Alliance Investment Management Inc.1,470$367K0.2%+3.5%0.000%
5/16/2024 Ironvine Capital Partners LLC103,072$25.74M2.8%+0.1%0.014%
5/16/2024 Janus Henderson Group PLC3,996,020$997.86M0.5%-14.0%0.539%
5/16/2024 Kennedy Capital Management LLC35,421$8.85M0.2%N/A0.005%
5/16/2024 L1 Capital International Pty Ltd19,486$4.83M2.1%-40.9%0.003%
5/16/2024 BTG Pactual Global Asset Management Ltd3,000$749K0.1%N/A0.000%
Who are Nvidia’s New Silent Partners? (Ad)

Nvidia recently became just the third $2 trillion company. But Nvidia can’t do everything by itself.

I call these Nvidia’s “Silent Partners.”
5/16/2024 Waverly Advisors LLC8,774$2.19M0.1%+251.1%0.001%
5/16/2024 Silvercrest Asset Management Group LLC123,238$30.78M0.2%-0.3%0.017%
5/16/2024 Captrust Financial Advisors103,710$25.90M0.1%-15.6%0.014%
5/16/2024 Zurich Insurance Group Ltd FI504,594$126.01M1.2%+40.3%0.068%
5/16/2024 Ashford Capital Management Inc.7,217$1.80M0.2%+12.4%0.001%
5/15/2024 Ascent Group LLC1,693$423K0.0%+7.8%0.000%
5/15/2024 SVB Wealth LLC53,084$13.26M0.3%-5.3%0.007%
5/15/2024 Mount Yale Investment Advisors LLC1,836$459K0.0%+84.3%0.000%
5/15/2024 Public Employees Retirement System of Ohio312,521$78.04M0.3%-7.3%0.042%
5/15/2024 Public Employees Retirement Association of Colorado586,366$146.43M0.6%-0.7%0.079%
5/15/2024 Bellevue Group AG86,232$21.53M0.3%+2.3%0.012%
5/15/2024 Bamco Inc. NY50,090$12.51M0.0%+37.2%0.007%
5/15/2024 Kentucky Retirement Systems Insurance Trust Fund21,703$5.42M0.4%-7.4%0.003%
5/15/2024 Kentucky Retirement Systems49,943$12.47M0.4%-5.1%0.007%
5/15/2024 Price T Rowe Associates Inc. MD16,150,284$4.03B0.5%-3.6%2.180%
5/15/2024 BOKF NA50,191$12.44M0.2%+3.6%0.007%
5/15/2024 Kestra Advisory Services LLC80,474$20.10M0.1%+10.4%0.011%
5/15/2024 Magnetar Financial LLC140,503$35.09M0.8%+298.2%0.019%
5/15/2024 Lazard Asset Management LLC3,318,193$828.62M1.0%-7.8%0.448%
5/15/2024 Bank of Nova Scotia Trust Co.42,598$10.64M1.1%+0.4%0.006%
5/15/2024 Epoch Investment Partners Inc.30,046$7.50M0.0%-82.9%0.004%
5/15/2024 LRI Investments LLC2,531$637K0.1%N/A0.000%
5/15/2024 1832 Asset Management L.P.727,168$181.59M0.1%-12.0%0.098%
5/15/2024 Gabelli Funds LLC21,385$5.34M0.0%-2.4%0.003%
5/15/2024 Altitude Crest Partners Inc.108,700$27.15M11.6%-10.6%0.015%
5/15/2024 Gamco Investors INC. ET AL3,168$791K0.0%-19.3%0.000%
5/14/2024 Canada Pension Plan Investment Board1,425,444$355.96M0.4%-6.4%0.192%
5/14/2024 Biltmore Family Office LLC1,601$400K0.1%+12.8%0.000%
5/14/2024 Westwood Holdings Group Inc.328,019$81.91M0.6%-6.6%0.044%
5/14/2024 Capital World Investors4,943,951$1.23B0.2%-1.4%0.667%
5/14/2024 Capital Research Global Investors5,125,470$1.28B0.3%+1.0%0.692%
5/14/2024 Capital International Sarl130,130$32.50M1.1%+20.1%0.018%
5/14/2024 Toronto Dominion Bank414,120$103.41M0.2%+1.4%0.056%
5/14/2024 Capital International Ltd. CA96,815$24.18M1.2%+20.2%0.013%
5/14/2024 Capital International Inc. CA 231,332$57.77M0.8%+8.4%0.031%
5/14/2024 Capital International Investors15,083,818$3.77B0.8%-5.5%2.036%
5/14/2024 Capital Group Private Client Services Inc.395,901$98.86M1.0%+3.5%0.053%
5/14/2024 Capital Group Investment Management PTE. LTD.24,712$6.17M1.1%-36.4%0.003%
5/14/2024 Napean Trading & Investment Co Singapore PTE Ltd34,858$8.71M2.1%+15.3%0.005%
5/14/2024 Cadence Bank12,159$3.04M0.2%+0.4%0.002%
5/14/2024 First Commonwealth Financial Corp PA 9,898$2.47M0.7%+167.7%0.001%
5/14/2024 Advisors Asset Management Inc.9,277$2.32M0.0%+3.2%0.001%
5/14/2024 Axxcess Wealth Management LLC15,548$3.88M0.1%+0.8%0.002%
5/14/2024 EP Wealth Advisors LLC22,622$5.65M0.1%+11.4%0.003%
5/14/2024 Wellington Wealth Strategies LLC.1,019$254K0.1%N/A0.000%
5/14/2024 Freestone Capital Holdings LLC4,132$1.03M0.0%+38.7%0.001%
5/14/2024 CreativeOne Wealth LLC1,003$250K0.0%N/A0.000%
5/14/2024 Delap Wealth Advisory LLC1,393$348K0.1%N/A0.000%
5/14/2024 Vident Advisory LLC23,786$5.94M0.1%-57.9%0.003%
5/14/2024 Fayez Sarofim & Co7,962$1.99M0.0%-1.6%0.001%
Forget Bitcoin. Crypto Millionaire Predicts 8,788% Gains For THIS (Ad)

You might have seen that Bitcoin was one of the best performing assets of 2023. It gained 164%. But a crypto millionaire who has been tracking the space for more than a decade has ABANDONED Bitcoin. He found something better.

Click here to find out that this 8,788% cryptocurrency is.
5/14/2024 LGT Group Foundation78,603$19.63M0.5%+95.6%0.011%
5/14/2024 Shell Asset Management Co.23,207$5.80M0.3%-21.4%0.003%
5/14/2024 Payden & Rygel Investment Group1,000$250K0.0%N/A0.000%
5/14/2024 Crewe Advisors LLC648$162K0.0%N/A0.000%
5/14/2024 Evermay Wealth Management LLC11,306$2.83M0.4%-0.7%0.002%
5/14/2024 Front Street Capital Management Inc.138,021$34.47M6.5%-1.4%0.019%
5/14/2024 MQS Management LLC923$230K0.1%N/A0.000%
5/14/2024 Castle Hook Partners LP396,097$98.91M2.8%N/A0.053%
5/14/2024 Natixis Investment Managers International178,715$44.63M3.0%+26.8%0.024%
5/14/2024 Natixis222,478$55.56M0.3%+3.7%0.030%
(Data available from 1/1/2016 forward)

DHR Institutional Ownership - Frequently Asked Questions

Who are the largest shareholders of DHR shares?

During the previous two years, 2,353 institutional investors and hedge funds held shares of Danaher. The most heavily invested institutionals were Aspire Private Capital LLC ($213.24B), Vanguard Group Inc. ($15.01B), BlackRock Inc. ($12.07B), State Street Corp ($6.72B), Wellington Management Group LLP ($6.46B), FMR LLC ($5.35B), and Morgan Stanley ($4.74B).Learn more on DHR's institutional investors.

What percentage of Danaher stock is owned by institutional investors?

79.05% of Danaher stock is owned by institutional investors. Learn more on DHR's institutional investor holdings.

Which institutional investors have been buying Danaher stock?

Of the 2,035 institutional investors that purchased Danaher stock in the last 24 months, the following investors and hedge funds have bought the highest volume of shares: Bank Julius Baer & Co. Ltd Zurich ($1.18B), Norges Bank ($7.57M), Wellington Management Group LLP ($6.90M), Vanguard Group Inc. ($5.18M), Bishop Rock Capital L.P. ($3.94M), Capital International Investors ($3.71M), and Harris Associates L P ($2.97M).

How much institutional buying is happening at Danaher?

Institutional investors have bought a total of 1,308,988,063 shares in the last 24 months. This purchase volume represents approximately $315.12B in transactions.

Which Danaher major shareholders have been selling company stock?

Of the 1,529 institutional investors that sold Danaher stock in the last 24 months, the following investors and hedge funds have sold the highest volume of shares: Jennison Associates LLC ($5.43M), Massachusetts Financial Services Co. MA ($2.88M), Findlay Park Partners LLP ($1.93M), The Manufacturers Life Insurance Company ($1.82M), BlackRock Inc. ($1.53M), Edgewood Management LLC ($1.47M), and Morgan Stanley ($1.46M).

How much institutional selling is happening at Danaher?

Institutional investors have sold a total of 68,362,174 shares in the last 24 months. This volume of shares sold represents approximately $16.95B in transactions.


This page (NYSE:DHR) was last updated on 5/29/2024 by MarketBeat.com Staff

From Our Partners